createdAt,value
2019-02-28T08:30:43.414Z,8.29
2019-02-28T08:33:16.490Z,8.26
2019-02-28T08:35:49.279Z,8.20
2019-02-28T08:38:20.595Z,8.26
2019-02-28T08:40:52.064Z,8.18
2019-02-28T08:43:27.037Z,8.27
2019-02-28T08:45:56.154Z,8.59
2019-02-28T08:48:31.597Z,8.57
2019-02-28T08:51:00.236Z,8.46
2019-02-28T08:53:32.461Z,8.52
2019-02-28T08:56:03.622Z,8.25
2019-02-28T08:58:37.748Z,8.18
2019-02-28T09:01:07.815Z,8.07
2019-02-28T09:03:40.617Z,7.95
2019-02-28T09:06:11.852Z,7.89
2019-02-28T09:08:46.184Z,7.74
2019-02-28T09:11:20.990Z,7.44
2019-02-28T09:13:53.939Z,7.62
2019-02-28T09:16:27.295Z,7.27
2019-02-28T09:19:00.886Z,7.53
2019-02-28T09:21:33.298Z,7.40
2019-02-28T09:24:05.560Z,7.71
2019-02-28T09:26:37.472Z,7.88
2019-02-28T09:29:10.243Z,7.91
2019-02-28T09:31:43.141Z,7.52
2019-02-28T09:34:14.396Z,7.81
2019-02-28T09:36:45.618Z,7.89
2019-02-28T09:39:20.291Z,7.88
2019-02-28T09:41:58.697Z,7.93
2019-02-28T09:44:34.427Z,7.87
2019-02-28T09:47:05.864Z,7.89
2019-02-28T09:49:44.280Z,7.68
2019-02-28T09:52:18.951Z,7.83
2019-02-28T09:54:59.232Z,7.63
2019-02-28T09:57:34.356Z,7.33
2019-02-28T10:00:23.156Z,7.31
2019-02-28T10:02:56.586Z,7.38
2019-02-28T10:05:31.433Z,7.54
2019-02-28T10:08:09.409Z,7.82
2019-02-28T10:10:42.428Z,8.13
2019-02-28T10:13:18.685Z,8.40
2019-02-28T10:15:52.433Z,8.71
2019-02-28T10:18:24.871Z,8.57
2019-02-28T10:20:59.106Z,8.71
2019-02-28T10:23:31.734Z,8.79
2019-02-28T10:26:07.067Z,8.86
2019-02-28T10:32:24.521Z,8.82
2019-02-28T10:35:05.176Z,9.27
2019-02-28T10:37:46.247Z,9.41
2019-02-28T10:40:25.484Z,9.49
2019-02-28T10:43:04.872Z,9.53
2019-02-28T10:45:41.986Z,9.22
2019-02-28T10:48:16.122Z,9.57
2019-02-28T10:50:53.102Z,9.51
2019-02-28T10:53:31.063Z,9.50
2019-02-28T10:56:03.634Z,9.57
2019-02-28T10:58:37.484Z,9.36
2019-02-28T11:01:12.362Z,9.33
2019-02-28T11:03:43.752Z,9.40
2019-02-28T11:06:16.705Z,9.67
2019-02-28T11:08:48.299Z,9.66
2019-02-28T11:11:21.222Z,9.60
2019-02-28T11:13:55.013Z,9.64
2019-02-28T11:16:29.245Z,9.58
2019-02-28T11:19:01.696Z,9.26
2019-02-28T11:21:37.092Z,9.25
2019-02-28T11:24:09.049Z,9.46
2019-02-28T11:26:44.879Z,9.54
2019-02-28T11:29:17.732Z,9.66
2019-02-28T11:31:50.574Z,9.67
2019-02-28T11:34:22.539Z,9.66
2019-02-28T11:36:56.089Z,9.67
2019-02-28T11:39:30.512Z,9.74
2019-02-28T11:42:01.942Z,10.02
2019-02-28T11:44:34.411Z,10.24
2019-02-28T11:47:08.420Z,10.46
2019-02-28T11:49:39.430Z,10.64
2019-02-28T11:52:11.105Z,10.74
2019-02-28T11:54:45.170Z,10.83
2019-02-28T11:57:17.199Z,10.97
2019-02-28T11:59:49.850Z,10.94
2019-02-28T12:02:26.237Z,10.93
2019-02-28T12:05:00.594Z,10.95
2019-02-28T12:07:35.681Z,10.68
2019-02-28T12:10:09.453Z,11.01
2019-02-28T12:12:44.681Z,11.06
2019-02-28T12:15:20.483Z,11.07
2019-02-28T12:17:52.615Z,11.06
2019-02-28T12:20:27.456Z,11.08
2019-02-28T12:24:29.411Z,11.05
2019-02-28T12:27:06.205Z,11.03
2019-02-28T12:29:40.793Z,10.65
2019-02-28T12:32:14.917Z,10.55
2019-02-28T12:34:50.852Z,10.30
2019-02-28T12:37:34.443Z,10.37
2019-02-28T12:40:10.415Z,10.02
2019-02-28T12:42:42.116Z,10.00
2019-02-28T12:45:24.443Z,9.81
2019-02-28T12:47:55.425Z,9.77
2019-02-28T12:50:29.468Z,9.83
2019-02-28T12:53:01.252Z,9.80
2019-02-28T12:55:35.426Z,9.80
2019-02-28T12:58:08.076Z,9.67
2019-02-28T13:00:41.084Z,9.77
2019-02-28T13:03:12.666Z,9.84
2019-02-28T13:05:48.133Z,9.87
2019-02-28T13:08:19.495Z,9.88
2019-02-28T13:10:50.767Z,9.96
2019-02-28T13:13:27.415Z,10.00
2019-02-28T13:15:58.293Z,10.06
2019-02-28T13:18:32.443Z,9.93
2019-02-28T13:21:06.193Z,9.60
2019-02-28T13:23:38.761Z,9.60
2019-02-28T13:26:10.032Z,9.49
2019-02-28T13:28:41.525Z,9.56
2019-02-28T13:33:14.982Z,9.69
2019-02-28T13:35:47.951Z,9.78
2019-02-28T13:38:19.952Z,9.84
2019-02-28T13:40:51.278Z,9.89
2019-02-28T13:43:22.919Z,9.94
2019-02-28T13:45:55.856Z,9.99
2019-02-28T13:48:33.408Z,9.82
2019-02-28T13:51:08.006Z,9.88
2019-02-28T13:53:39.759Z,9.94
2019-02-28T13:56:11.202Z,9.86
2019-02-28T13:58:45.703Z,9.81
2019-02-28T14:01:20.376Z,9.77
2019-02-28T14:03:53.877Z,9.74
2019-02-28T14:06:25.302Z,9.79
2019-02-28T14:08:58.037Z,9.78
2019-02-28T14:11:30.779Z,9.76
2019-02-28T14:14:06.264Z,9.87
2019-02-28T14:16:38.588Z,9.81
2019-02-28T14:19:11.747Z,9.81
2019-02-28T14:21:44.296Z,9.74
2019-02-28T14:24:15.542Z,9.47
2019-02-28T14:26:49.514Z,9.50
2019-02-28T14:29:22.461Z,9.50
2019-02-28T14:31:53.751Z,9.48
2019-02-28T14:34:26.208Z,9.53
2019-02-28T14:36:58.550Z,9.61
2019-02-28T14:39:32.108Z,9.62
2019-02-28T14:42:06.689Z,9.51
2019-02-28T14:44:37.467Z,9.52
2019-02-28T14:47:08.698Z,9.49
2019-02-28T14:49:43.836Z,9.48
2019-02-28T14:52:15.695Z,9.48
2019-02-28T14:54:47.143Z,9.42
2019-02-28T14:57:19.196Z,9.48
2019-02-28T14:59:51.852Z,9.54
2019-02-28T15:02:28.756Z,9.52
2019-02-28T15:05:01.995Z,9.48
2019-02-28T15:07:38.696Z,9.47
2019-02-28T15:10:15.244Z,9.41
2019-02-28T15:12:46.564Z,9.36
2019-02-28T15:15:20.310Z,9.33
2019-02-28T15:17:51.581Z,9.33
2019-02-28T15:20:22.824Z,9.27
2019-02-28T15:22:55.838Z,9.15
2019-02-28T15:25:29.610Z,9.17
2019-02-28T15:28:01.988Z,9.17
2019-02-28T15:30:35.562Z,9.09
2019-02-28T15:33:10.994Z,9.00
2019-02-28T15:35:42.294Z,9.07
2019-02-28T15:38:13.976Z,9.00
2019-02-28T15:40:47.240Z,9.03
2019-02-28T15:43:20.102Z,8.98
2019-02-28T15:45:52.930Z,9.01
2019-02-28T15:48:25.311Z,8.95
2019-02-28T15:50:56.580Z,8.93
2019-02-28T15:53:28.863Z,8.89
2019-02-28T15:56:00.136Z,8.88
2019-02-28T15:58:31.991Z,8.89
2019-02-28T16:01:04.076Z,8.84
2019-02-28T16:03:35.224Z,8.85
2019-02-28T16:06:06.542Z,8.86
2019-02-28T16:08:37.711Z,8.82
2019-02-28T16:11:08.972Z,8.81
2019-02-28T16:13:40.621Z,8.75
2019-02-28T16:16:11.799Z,8.71
2019-02-28T16:18:43.987Z,8.69
2019-02-28T16:21:16.067Z,8.60
2019-02-28T16:23:48.458Z,8.52
2019-02-28T16:26:21.775Z,8.46
2019-02-28T16:28:54.203Z,8.44
2019-02-28T16:31:25.884Z,8.42
2019-02-28T16:34:07.946Z,8.37
2019-02-28T16:36:32.220Z,8.31
2019-02-28T16:39:04.599Z,8.33
2019-02-28T16:41:36.940Z,8.26
2019-02-28T16:44:08.821Z,8.24
2019-02-28T16:46:40.097Z,8.25
2019-02-28T16:49:14.556Z,8.25
2019-02-28T16:51:48.845Z,8.17
2019-02-28T16:54:22.579Z,8.08
2019-02-28T16:56:54.052Z,8.03
2019-02-28T16:59:28.399Z,7.94
2019-02-28T17:02:00.909Z,7.87
2019-02-28T17:04:41.375Z,7.81
2019-02-28T17:07:20.358Z,7.76
2019-02-28T17:09:52.417Z,7.70
2019-02-28T17:12:31.367Z,7.60
2019-02-28T17:19:46.730Z,7.42
2019-02-28T17:22:19.530Z,7.35
2019-02-28T17:24:51.348Z,7.29
2019-02-28T17:27:24.186Z,7.28
2019-02-28T17:30:01.704Z,7.17
2019-02-28T17:32:36.798Z,7.09
2019-02-28T17:35:09.073Z,7.06
2019-02-28T17:37:42.755Z,7.00
2019-02-28T17:40:15.612Z,6.95
2019-02-28T17:42:49.834Z,6.93
2019-02-28T17:45:23.577Z,6.93
2019-02-28T17:48:15.775Z,6.85
2019-02-28T17:50:56.003Z,6.86
2019-02-28T17:53:48.251Z,6.80
2019-02-28T17:56:23.791Z,6.77
2019-02-28T17:59:04.476Z,6.64
2019-02-28T18:01:55.817Z,6.65
2019-02-28T18:04:56.017Z,6.59
2019-02-28T18:07:30.649Z,6.42
2019-02-28T18:10:04.991Z,6.29
2019-02-28T18:12:44.340Z,5.85
2019-02-28T18:15:23.416Z,6.15
2019-02-28T18:18:15.315Z,6.04
2019-02-28T18:21:00.702Z,5.90
2019-02-28T18:24:00.096Z,5.84
2019-02-28T18:27:11.602Z,5.81
2019-02-28T18:30:02.285Z,5.68
2019-02-28T18:32:34.065Z,5.60
2019-02-28T18:35:08.269Z,5.51
2019-02-28T18:37:39.570Z,5.42
2019-02-28T18:40:10.840Z,5.36
2019-02-28T18:42:42.684Z,5.32
2019-02-28T18:45:15.706Z,5.26
2019-02-28T18:47:47.873Z,5.24
2019-02-28T18:50:19.317Z,5.23
2019-02-28T18:52:50.514Z,5.21
2019-02-28T18:55:21.936Z,5.19
2019-02-28T18:57:53.143Z,5.15
2019-02-28T19:00:24.915Z,5.08
2019-02-28T19:02:56.153Z,4.99
2019-02-28T19:05:27.400Z,4.94
2019-02-28T19:07:58.599Z,4.93
2019-02-28T19:10:29.808Z,4.95
2019-02-28T19:13:01.133Z,4.85
2019-02-28T19:15:32.589Z,4.78
2019-02-28T19:18:05.380Z,4.70
2019-02-28T19:20:36.617Z,4.67
2019-02-28T19:23:07.892Z,4.66
2019-02-28T19:25:39.380Z,4.64
2019-02-28T19:28:14.840Z,4.56
2019-02-28T19:30:47.770Z,4.52
2019-02-28T19:33:19.083Z,4.53
2019-02-28T19:35:50.269Z,4.44
2019-02-28T19:38:21.584Z,4.50
2019-02-28T19:40:52.781Z,4.52
2019-02-28T19:43:23.978Z,4.48
2019-02-28T19:45:56.440Z,4.53
2019-02-28T19:48:27.648Z,4.52
2019-02-28T19:50:58.926Z,4.49
2019-02-28T19:53:30.129Z,4.53
2019-02-28T19:56:02.987Z,4.52
2019-02-28T19:58:35.313Z,4.48
2019-02-28T20:01:06.756Z,4.38
2019-02-28T20:03:38.008Z,4.36
2019-02-28T20:06:10.412Z,4.26
2019-02-28T20:08:42.417Z,4.20
2019-02-28T20:11:13.691Z,4.12
2019-02-28T20:13:45.175Z,4.12
2019-02-28T20:16:18.643Z,4.07
2019-02-28T20:18:50.499Z,4.04
2019-02-28T20:21:21.930Z,4.02
2019-02-28T20:23:53.144Z,4.04
2019-02-28T20:26:24.390Z,4.06
2019-02-28T20:28:55.594Z,4.12
2019-02-28T20:31:27.235Z,4.12
2019-02-28T20:34:34.103Z,4.12
2019-02-28T20:37:06.517Z,4.05
2019-02-28T20:39:38.060Z,4.04
2019-02-28T20:42:09.971Z,4.03
2019-02-28T20:44:42.404Z,4.00
2019-02-28T20:47:14.673Z,4.03
2019-02-28T20:49:45.934Z,4.04
2019-02-28T20:52:20.362Z,4.06
2019-02-28T20:54:51.806Z,4.15
2019-02-28T20:57:23.090Z,4.14
2019-02-28T20:59:54.365Z,4.15
2019-02-28T21:02:25.585Z,4.13
2019-02-28T21:04:57.873Z,4.11
2019-02-28T21:07:29.100Z,4.11
2019-02-28T21:10:00.325Z,4.00
2019-02-28T21:12:31.946Z,3.96
2019-02-28T21:15:03.198Z,3.97
2019-02-28T21:17:34.511Z,4.00
2019-02-28T21:20:12.298Z,3.99
2019-02-28T21:22:43.688Z,3.98
2019-02-28T21:25:18.220Z,3.98
2019-02-28T21:27:51.519Z,3.98
2019-02-28T21:30:26.320Z,3.97
2019-02-28T21:32:57.601Z,3.90
2019-02-28T21:35:28.796Z,3.96
2019-02-28T21:38:00.047Z,3.90
2019-02-28T21:40:31.315Z,3.85
2019-02-28T21:43:02.681Z,3.91
2019-02-28T21:45:33.978Z,3.94
2019-02-28T21:48:05.136Z,3.97
2019-02-28T21:50:36.403Z,3.98
2019-02-28T21:53:08.583Z,3.99
2019-02-28T21:55:39.983Z,3.96
2019-02-28T21:58:11.231Z,3.98
2019-02-28T22:00:42.626Z,3.94
2019-02-28T22:03:13.832Z,3.92
2019-02-28T22:05:47.410Z,3.88
2019-02-28T22:08:19.162Z,3.78
2019-02-28T22:10:50.384Z,3.74
2019-02-28T22:13:24.208Z,3.70
2019-02-28T22:15:56.400Z,3.73
2019-02-28T22:18:27.596Z,3.69
2019-02-28T22:21:00.362Z,3.72
2019-02-28T22:23:33.133Z,3.72
2019-02-28T22:26:04.412Z,3.72
2019-02-28T22:28:35.719Z,3.76
2019-02-28T22:31:17.755Z,3.80
2019-02-28T22:33:51.836Z,3.77
2019-02-28T22:36:24.594Z,3.79
2019-02-28T22:38:56.828Z,3.86
2019-02-28T22:41:28.043Z,3.86
2019-02-28T22:43:59.325Z,3.85
2019-02-28T22:46:30.572Z,3.82
2019-02-28T22:49:01.817Z,3.84
2019-02-28T22:51:34.549Z,3.86
2019-02-28T22:54:05.774Z,3.86
2019-02-28T22:56:37.448Z,3.91
2019-02-28T23:01:47.006Z,4.01
2019-02-28T23:04:20.246Z,3.98
2019-02-28T23:06:51.646Z,3.90
2019-02-28T23:09:22.792Z,3.88
2019-02-28T23:11:55.582Z,3.92
2019-02-28T23:14:28.288Z,3.85
2019-02-28T23:16:59.455Z,3.88
2019-02-28T23:19:30.681Z,3.88
2019-02-28T23:22:02.963Z,3.85
2019-02-28T23:24:34.681Z,3.81
2019-02-28T23:27:17.824Z,3.76
2019-02-28T23:30:01.422Z,3.69
2019-02-28T23:32:46.468Z,3.69
2019-02-28T23:35:21.016Z,3.68
2019-02-28T23:37:53.999Z,3.69
2019-02-28T23:40:25.192Z,3.67
2019-02-28T23:42:57.223Z,3.70
2019-02-28T23:45:28.456Z,3.74
2019-02-28T23:47:59.666Z,3.76
2019-02-28T23:50:30.803Z,3.73
2019-02-28T23:53:12.641Z,3.70
2019-02-28T23:55:44.386Z,3.67
2019-02-28T23:58:17.454Z,3.64
